createdAt,value
2022-11-03T00:01:41.124Z,6.50
2022-11-03T00:03:42.870Z,6.50
2022-11-03T00:06:03.261Z,6.50
2022-11-03T00:08:05.035Z,6.50
2022-11-03T00:10:06.920Z,6.40
2022-11-03T00:12:08.534Z,6.40
2022-11-03T00:14:10.592Z,6.40
2022-11-03T00:16:12.588Z,6.40
2022-11-03T00:18:14.224Z,6.40
2022-11-03T00:20:15.988Z,6.40
2022-11-03T00:22:17.583Z,6.30
2022-11-03T00:24:19.208Z,6.40
2022-11-03T00:26:21.978Z,6.40
2022-11-03T00:28:23.604Z,6.30
2022-11-03T00:30:25.319Z,6.30
2022-11-03T00:32:26.908Z,6.30
2022-11-03T00:34:28.560Z,6.30
2022-11-03T00:36:31.415Z,6.30
2022-11-03T00:38:33.499Z,6.30
2022-11-03T00:40:35.133Z,6.30
2022-11-03T00:42:37.503Z,6.30
2022-11-03T00:44:39.118Z,6.30
2022-11-03T00:46:40.764Z,6.30
2022-11-03T00:48:42.620Z,6.30
2022-11-03T00:50:44.355Z,6.30
2022-11-03T00:52:45.957Z,6.30
2022-11-03T00:54:51.323Z,6.30
2022-11-03T00:56:56.759Z,6.30
2022-11-03T00:58:58.936Z,6.30
2022-11-03T01:01:04.965Z,6.20
2022-11-03T01:03:06.970Z,6.20
2022-11-03T01:05:27.382Z,6.20
2022-11-03T01:07:29.000Z,6.20
2022-11-03T01:09:31.688Z,6.20
2022-11-03T01:11:45.243Z,6.20
2022-11-03T01:13:46.831Z,6.20
2022-11-03T01:15:48.469Z,6.20
2022-11-03T01:17:50.063Z,6.20
2022-11-03T01:19:52.129Z,6.10
2022-11-03T01:21:54.024Z,6.20
2022-11-03T01:23:55.695Z,6.10
2022-11-03T01:25:57.299Z,6.10
2022-11-03T01:27:59.037Z,6.20
2022-11-03T01:30:00.685Z,6.20
2022-11-03T01:32:02.351Z,6.10
2022-11-03T01:34:03.967Z,6.10
2022-11-03T01:36:05.693Z,6.10
2022-11-03T01:38:07.282Z,6.10
2022-11-03T01:40:09.234Z,6.10
2022-11-03T01:42:12.518Z,6.10
2022-11-03T01:44:14.143Z,6.10
2022-11-03T01:46:18.794Z,6.20
2022-11-03T01:48:21.657Z,6.10
2022-11-03T01:50:23.476Z,6.10
2022-11-03T01:52:33.928Z,6.10
2022-11-03T01:54:36.739Z,6.10
2022-11-03T01:56:40.875Z,6.10
2022-11-03T01:58:44.770Z,6.10
2022-11-03T02:00:48.044Z,6.10
2022-11-03T02:02:50.404Z,6.10
2022-11-03T02:04:52.082Z,6.10
2022-11-03T02:06:58.600Z,6.00
2022-11-03T02:09:04.877Z,6.00
2022-11-03T02:11:26.450Z,6.00
2022-11-03T02:13:28.106Z,6.00
2022-11-03T02:15:30.456Z,6.00
2022-11-03T02:17:33.067Z,6.00
2022-11-03T02:19:45.999Z,6.00
2022-11-03T02:21:47.598Z,6.00
2022-11-03T02:23:53.680Z,6.00
2022-11-03T02:25:57.030Z,6.00
2022-11-03T02:27:59.025Z,6.00
2022-11-03T02:30:01.017Z,5.90
2022-11-03T02:32:12.954Z,5.90
2022-11-03T02:34:19.595Z,5.90
2022-11-03T02:36:41.902Z,5.90
2022-11-03T02:38:58.968Z,5.90
2022-11-03T02:41:03.103Z,5.90
2022-11-03T02:43:05.775Z,5.90
2022-11-03T02:45:13.231Z,5.90
2022-11-03T02:47:18.962Z,5.80
2022-11-03T02:49:20.630Z,5.80
2022-11-03T02:51:22.232Z,5.80
2022-11-03T02:53:23.847Z,5.80
2022-11-03T02:55:39.028Z,5.90
2022-11-03T02:57:45.000Z,5.70
2022-11-03T02:59:50.439Z,5.80
2022-11-03T03:01:59.188Z,5.70
2022-11-03T03:04:06.840Z,5.70
2022-11-03T03:06:09.691Z,5.70
2022-11-03T03:08:12.095Z,5.70
2022-11-03T03:10:17.881Z,5.70
2022-11-03T03:12:20.306Z,5.70
2022-11-03T03:14:24.591Z,5.70
2022-11-03T03:16:31.514Z,5.60
2022-11-03T03:18:48.890Z,5.60
2022-11-03T03:20:56.136Z,5.60
2022-11-03T03:23:06.215Z,5.60
2022-11-03T03:25:23.635Z,5.60
2022-11-03T03:27:26.494Z,5.60
2022-11-03T03:29:39.249Z,5.60
2022-11-03T03:31:42.904Z,5.60
2022-11-03T03:33:47.709Z,5.60
2022-11-03T03:35:51.277Z,5.60
2022-11-03T03:37:54.394Z,5.60
2022-11-03T03:39:58.025Z,5.60
2022-11-03T03:42:01.377Z,5.60
2022-11-03T03:44:05.667Z,5.70
2022-11-03T03:46:10.052Z,5.60
2022-11-03T03:48:12.049Z,5.60
2022-11-03T03:50:13.691Z,5.50
2022-11-03T03:52:15.382Z,5.60
2022-11-03T03:54:17.024Z,5.60
2022-11-03T03:56:21.889Z,5.60
2022-11-03T03:58:23.519Z,5.60
2022-11-03T04:00:25.151Z,5.60
2022-11-03T04:02:26.837Z,5.50
2022-11-03T04:04:28.699Z,5.60
2022-11-03T04:06:30.392Z,5.60
2022-11-03T04:08:31.980Z,5.60
2022-11-03T04:10:33.619Z,5.60
2022-11-03T04:12:53.939Z,5.60
2022-11-03T04:15:13.958Z,5.60
2022-11-03T04:17:38.304Z,5.60
2022-11-03T04:19:58.884Z,5.60
2022-11-03T04:22:18.696Z,5.70
2022-11-03T04:24:20.315Z,5.70
2022-11-03T04:26:24.865Z,5.70
2022-11-03T04:28:27.220Z,5.70
2022-11-03T04:30:28.822Z,5.70
2022-11-03T04:32:30.702Z,5.70
2022-11-03T04:34:32.347Z,5.70
2022-11-03T04:36:33.986Z,5.80
2022-11-03T04:38:36.786Z,5.80
2022-11-03T04:40:39.447Z,5.80
2022-11-03T04:42:41.195Z,5.80
2022-11-03T04:44:42.905Z,5.90
2022-11-03T04:46:45.654Z,5.90
2022-11-03T04:48:47.589Z,5.90
2022-11-03T04:50:50.120Z,5.90
2022-11-03T04:52:55.072Z,5.90
2022-11-03T04:54:56.699Z,6.00
2022-11-03T04:56:58.376Z,6.10
2022-11-03T04:58:59.987Z,6.00
2022-11-03T05:01:02.824Z,6.10
2022-11-03T05:03:04.528Z,6.10
2022-11-03T05:05:17.477Z,6.10
2022-11-03T05:07:34.119Z,6.10
2022-11-03T05:09:38.963Z,6.10
2022-11-03T05:11:45.755Z,6.10
2022-11-03T05:13:47.986Z,6.10
2022-11-03T05:15:50.794Z,6.20
2022-11-03T05:17:52.501Z,6.10
2022-11-03T05:19:58.043Z,6.20
2022-11-03T05:22:00.607Z,6.10
2022-11-03T05:24:03.371Z,6.20
2022-11-03T05:26:05.508Z,6.20
2022-11-03T05:28:20.576Z,6.20
2022-11-03T05:30:22.227Z,6.20
2022-11-03T05:32:29.323Z,6.20
2022-11-03T05:34:30.955Z,6.30
2022-11-03T05:36:33.221Z,6.30
2022-11-03T05:38:34.857Z,6.20
2022-11-03T05:40:36.497Z,6.30
2022-11-03T05:42:39.772Z,6.30
2022-11-03T05:44:41.406Z,6.30
2022-11-03T05:46:43.033Z,6.30
2022-11-03T05:48:44.958Z,6.30
2022-11-03T05:50:46.717Z,6.40
2022-11-03T05:52:49.794Z,6.40
2022-11-03T05:54:52.300Z,6.40
2022-11-03T05:56:55.085Z,6.40
2022-11-03T05:58:57.257Z,6.60
2022-11-03T06:01:00.360Z,6.40
2022-11-03T06:03:02.203Z,6.40
2022-11-03T06:05:11.576Z,6.40
2022-11-03T06:07:20.257Z,6.40
2022-11-03T06:09:23.572Z,6.40
2022-11-03T06:11:44.007Z,6.40
2022-11-03T06:13:45.619Z,6.50
2022-11-03T06:15:48.078Z,6.50
2022-11-03T06:17:49.907Z,6.50
2022-11-03T06:19:56.031Z,6.40
2022-11-03T06:21:58.977Z,6.40
2022-11-03T06:24:00.627Z,6.50
2022-11-03T06:26:03.158Z,6.50
2022-11-03T06:28:06.286Z,6.50
2022-11-03T06:30:24.173Z,6.50
2022-11-03T06:32:25.897Z,6.50
2022-11-03T06:34:27.491Z,6.50
2022-11-03T06:36:31.309Z,6.50
2022-11-03T06:38:34.989Z,6.50
2022-11-03T06:40:37.673Z,6.50
2022-11-03T06:42:40.060Z,6.50
2022-11-03T06:44:42.909Z,6.60
2022-11-03T06:46:44.560Z,6.60
2022-11-03T06:48:46.284Z,6.60
2022-11-03T06:50:47.970Z,6.60
2022-11-03T06:54:59.278Z,6.70
2022-11-03T06:57:00.885Z,6.60
2022-11-03T06:59:02.594Z,6.70
2022-11-03T07:01:12.585Z,6.70
2022-11-03T07:03:18.345Z,6.70
2022-11-03T07:05:23.692Z,6.70
2022-11-03T07:07:25.555Z,6.70
2022-11-03T07:09:27.269Z,6.70
2022-11-03T07:11:30.828Z,6.80
2022-11-03T07:13:34.604Z,6.80
2022-11-03T07:15:38.210Z,6.80
2022-11-03T07:17:39.849Z,6.80
2022-11-03T07:19:42.499Z,6.80
2022-11-03T07:21:45.568Z,6.80
2022-11-03T07:23:47.391Z,6.90
2022-11-03T07:26:00.107Z,6.90
2022-11-03T07:28:02.038Z,7.00
2022-11-03T07:30:20.552Z,6.90
2022-11-03T07:32:23.928Z,6.90
2022-11-03T07:34:27.676Z,6.90
2022-11-03T07:36:31.808Z,6.90
2022-11-03T07:38:33.419Z,7.00
2022-11-03T07:40:35.475Z,7.00
2022-11-03T07:42:37.114Z,7.00
2022-11-03T07:44:39.123Z,7.10
2022-11-03T07:46:40.791Z,7.20
2022-11-03T07:48:49.421Z,7.10
2022-11-03T07:50:59.299Z,7.10
2022-11-03T07:53:01.001Z,7.10
2022-11-03T07:55:11.071Z,7.20
2022-11-03T07:57:19.045Z,7.10
2022-11-03T07:59:20.755Z,7.20
2022-11-03T08:01:24.674Z,7.20
2022-11-03T08:03:44.358Z,7.20
2022-11-03T08:05:46.061Z,7.30
2022-11-03T08:07:47.847Z,7.30
2022-11-03T08:09:49.618Z,7.30
2022-11-03T08:11:51.737Z,7.40
2022-11-03T08:13:53.519Z,7.40
2022-11-03T08:15:55.221Z,7.50
2022-11-03T08:17:57.344Z,7.50
2022-11-03T08:19:58.961Z,7.50
2022-11-03T08:22:00.612Z,7.60
2022-11-03T08:24:02.470Z,7.60
2022-11-03T08:26:04.438Z,7.60
2022-11-03T08:28:06.172Z,7.70
2022-11-03T08:30:07.917Z,7.70
2022-11-03T08:32:09.648Z,7.80
2022-11-03T08:34:11.473Z,7.80
2022-11-03T08:36:13.270Z,7.90
2022-11-03T08:38:14.953Z,7.90
2022-11-03T08:40:16.827Z,7.90
2022-11-03T08:42:18.681Z,8.00
2022-11-03T08:44:20.310Z,8.10
2022-11-03T08:46:22.113Z,8.10
2022-11-03T08:48:27.165Z,8.20
2022-11-03T08:50:28.900Z,8.20
2022-11-03T08:52:30.545Z,8.30
2022-11-03T08:54:32.179Z,8.40
2022-11-03T08:56:33.804Z,8.50
2022-11-03T08:58:35.446Z,8.50
2022-11-03T09:00:40.961Z,8.60
2022-11-03T09:02:43.900Z,8.70
2022-11-03T09:04:45.680Z,8.90
2022-11-03T09:06:47.398Z,8.90
2022-11-03T09:11:10.630Z,9.00
2022-11-03T09:13:12.306Z,9.10
2022-11-03T09:15:13.986Z,9.10
2022-11-03T09:17:15.676Z,9.20
2022-11-03T09:19:17.362Z,9.30
2022-11-03T09:21:19.062Z,9.30
2022-11-03T09:23:20.726Z,9.40
2022-11-03T09:25:22.492Z,9.50
2022-11-03T09:27:24.548Z,9.50
2022-11-03T09:29:26.241Z,9.60
2022-11-03T09:31:29.247Z,9.60
2022-11-03T09:33:30.936Z,9.70
2022-11-03T09:35:32.620Z,9.80
2022-11-03T09:37:34.269Z,9.90
2022-11-03T09:39:36.010Z,9.90
2022-11-03T09:41:58.137Z,10.00
2022-11-03T09:44:00.393Z,10.10
2022-11-03T09:46:02.116Z,10.10
2022-11-03T09:48:04.223Z,10.20
2022-11-03T09:50:06.855Z,10.30
2022-11-03T09:52:12.656Z,10.40
2022-11-03T09:54:15.774Z,10.40
2022-11-03T09:56:19.403Z,10.50
2022-11-03T09:58:21.042Z,10.50
2022-11-03T10:00:23.828Z,10.60
2022-11-03T10:02:29.402Z,10.70
2022-11-03T10:04:31.299Z,10.70
2022-11-03T10:06:32.913Z,10.80
2022-11-03T10:08:35.617Z,10.80
2022-11-03T10:10:37.897Z,10.90
2022-11-03T10:12:39.556Z,10.90
2022-11-03T10:14:42.526Z,11.00
2022-11-03T10:16:49.427Z,11.00
2022-11-03T10:18:54.138Z,11.00
2022-11-03T10:20:56.372Z,11.00
2022-11-03T10:22:58.058Z,11.10
2022-11-03T10:25:25.921Z,11.10
2022-11-03T10:27:27.594Z,11.20
2022-11-03T10:29:29.238Z,11.30
2022-11-03T10:31:31.902Z,11.30
2022-11-03T10:33:37.581Z,11.30
2022-11-03T10:35:41.819Z,11.30
2022-11-03T10:37:43.474Z,11.40
2022-11-03T10:39:45.955Z,11.40
2022-11-03T10:41:58.464Z,11.40
2022-11-03T10:44:08.145Z,11.50
2022-11-03T10:46:36.443Z,11.50
2022-11-03T10:48:37.810Z,11.60
2022-11-03T10:50:40.315Z,11.60
2022-11-03T10:52:42.584Z,11.70
2022-11-03T10:54:44.235Z,11.70
2022-11-03T10:56:46.637Z,11.70
2022-11-03T10:58:48.671Z,11.80
2022-11-03T11:00:50.411Z,11.80
2022-11-03T11:02:56.804Z,11.90
2022-11-03T11:05:00.845Z,11.90
2022-11-03T11:07:02.534Z,11.90
2022-11-03T11:09:05.192Z,11.90
2022-11-03T11:11:07.626Z,11.90
2022-11-03T11:13:12.522Z,12.00
2022-11-03T11:15:43.336Z,12.00
2022-11-03T11:17:49.331Z,12.10
2022-11-03T11:20:09.570Z,12.10
2022-11-03T11:22:13.155Z,12.20
2022-11-03T11:24:34.748Z,12.20
2022-11-03T11:26:37.139Z,12.30
2022-11-03T11:28:39.985Z,12.30
2022-11-03T11:30:41.626Z,12.40
2022-11-03T11:32:46.070Z,12.40
2022-11-03T11:34:47.745Z,12.50
2022-11-03T11:36:54.943Z,12.50
2022-11-03T11:38:57.979Z,12.50
2022-11-03T11:40:59.659Z,12.60
2022-11-03T11:43:01.280Z,12.70
2022-11-03T11:45:03.481Z,12.70
2022-11-03T11:47:24.075Z,12.80
2022-11-03T11:49:25.735Z,12.90
2022-11-03T11:51:27.773Z,12.90
2022-11-03T11:53:33.585Z,13.00
2022-11-03T11:55:40.597Z,13.10
2022-11-03T11:57:42.275Z,13.20
2022-11-03T11:59:45.619Z,13.30
2022-11-03T12:01:49.180Z,13.40
2022-11-03T12:03:52.122Z,13.40
2022-11-03T12:05:53.832Z,13.40
2022-11-03T12:07:55.476Z,13.40
2022-11-03T12:10:06.687Z,13.50
2022-11-03T12:12:08.913Z,13.50
2022-11-03T12:14:28.840Z,13.60
2022-11-03T12:16:31.793Z,13.70
2022-11-03T12:18:38.911Z,13.70
2022-11-03T12:20:47.984Z,13.80
2022-11-03T12:22:49.763Z,13.90
2022-11-03T12:24:51.577Z,14.00
2022-11-03T12:26:53.577Z,14.00
2022-11-03T12:28:55.824Z,14.10
2022-11-03T12:30:57.533Z,14.20
2022-11-03T12:32:59.221Z,14.20
2022-11-03T12:35:01.080Z,14.20
2022-11-03T12:37:02.730Z,14.30
2022-11-03T12:39:04.379Z,14.30
2022-11-03T12:41:25.277Z,14.30
2022-11-03T12:43:26.898Z,14.30
2022-11-03T12:45:28.531Z,14.30
2022-11-03T12:47:30.227Z,14.40
2022-11-03T12:49:31.898Z,14.40
2022-11-03T12:51:33.530Z,14.40
2022-11-03T12:53:35.165Z,14.50
2022-11-03T12:55:39.265Z,14.50
2022-11-03T12:57:45.807Z,14.50
2022-11-03T12:59:47.476Z,14.50
2022-11-03T13:01:49.223Z,14.50
2022-11-03T13:03:51.019Z,14.50
2022-11-03T13:05:52.841Z,14.50
2022-11-03T13:07:54.559Z,14.50
2022-11-03T13:09:56.263Z,14.60
2022-11-03T13:12:16.568Z,14.60
2022-11-03T13:14:18.238Z,14.60
2022-11-03T13:16:19.905Z,14.50
2022-11-03T13:18:22.266Z,14.50
2022-11-03T13:20:24.590Z,14.50
2022-11-03T13:22:26.230Z,14.40
2022-11-03T13:24:27.947Z,14.40
2022-11-03T13:26:29.877Z,14.40
2022-11-03T13:28:31.550Z,14.40
2022-11-03T13:30:33.829Z,14.40
2022-11-03T13:32:35.566Z,14.40
2022-11-03T13:34:37.192Z,14.30
2022-11-03T13:36:38.925Z,14.30
2022-11-03T13:38:40.621Z,14.20
2022-11-03T13:40:56.280Z,14.20
2022-11-03T13:42:59.057Z,14.20
2022-11-03T13:45:01.127Z,14.20
2022-11-03T13:47:04.138Z,14.10
2022-11-03T13:49:51.151Z,14.10
2022-11-03T13:51:27.849Z,14.00
2022-11-03T13:55:51.354Z,14.00
2022-11-03T14:00:16.856Z,13.90
2022-11-03T14:06:46.864Z,13.80
2022-11-03T14:08:48.561Z,13.70
2022-11-03T14:10:50.167Z,13.70
2022-11-03T14:12:51.828Z,13.60
2022-11-03T14:14:53.540Z,13.60
2022-11-03T14:16:55.335Z,13.60
2022-11-03T14:18:57.011Z,13.60
2022-11-03T14:20:58.717Z,13.60
2022-11-03T14:23:00.350Z,13.50
2022-11-03T14:25:02.137Z,13.50
2022-11-03T14:27:03.917Z,13.50
2022-11-03T14:29:05.809Z,13.50
2022-11-03T14:31:07.667Z,13.50
2022-11-03T14:33:09.641Z,13.50
2022-11-03T14:35:11.688Z,13.50
2022-11-03T14:37:13.470Z,13.40
2022-11-03T14:39:15.261Z,13.40
2022-11-03T14:41:35.643Z,13.40
2022-11-03T14:43:37.316Z,13.30
2022-11-03T14:45:41.633Z,13.30
2022-11-03T14:47:44.372Z,13.20
2022-11-03T14:49:46.458Z,13.20
2022-11-03T14:51:48.285Z,13.20
2022-11-03T14:53:49.981Z,13.10
2022-11-03T14:55:51.648Z,13.10
2022-11-03T14:57:53.276Z,13.00
2022-11-03T14:59:54.975Z,13.00
2022-11-03T15:01:56.866Z,12.90
2022-11-03T15:03:58.869Z,12.90
2022-11-03T15:06:00.621Z,12.90
2022-11-03T15:08:02.314Z,12.80
2022-11-03T15:10:04.169Z,12.80
2022-11-03T15:12:05.993Z,12.70
2022-11-03T15:14:07.638Z,12.70
2022-11-03T15:16:09.294Z,12.50
2022-11-03T15:18:11.384Z,12.60
2022-11-03T15:20:13.133Z,12.60
2022-11-03T15:22:15.827Z,12.50
2022-11-03T15:26:39.234Z,12.40
2022-11-03T15:28:42.589Z,12.40
2022-11-03T15:30:44.259Z,12.30
2022-11-03T15:32:45.928Z,12.30
2022-11-03T15:34:47.622Z,12.20
2022-11-03T15:36:49.298Z,12.20
2022-11-03T15:38:51.040Z,12.10
2022-11-03T15:40:52.755Z,12.10
2022-11-03T15:42:57.844Z,12.10
2022-11-03T15:45:04.088Z,12.10
2022-11-03T15:47:07.080Z,12.00
2022-11-03T15:49:08.698Z,12.10
2022-11-03T15:51:10.854Z,12.00
2022-11-03T15:53:12.545Z,12.00
2022-11-03T15:55:14.214Z,12.00
2022-11-03T15:57:16.146Z,11.90
2022-11-03T15:59:18.417Z,11.90
2022-11-03T16:01:20.612Z,11.90
2022-11-03T16:03:22.441Z,11.80
2022-11-03T16:05:25.461Z,11.80
2022-11-03T16:07:27.234Z,11.80
2022-11-03T16:09:28.855Z,11.70
2022-11-03T16:11:30.525Z,11.60
2022-11-03T16:13:32.712Z,11.60
2022-11-03T16:15:34.333Z,11.60
2022-11-03T16:17:37.496Z,11.60
2022-11-03T16:19:41.792Z,11.60
2022-11-03T16:21:43.504Z,11.50
2022-11-03T16:23:45.595Z,11.50
2022-11-03T16:25:47.458Z,11.50
2022-11-03T16:27:49.160Z,11.40
2022-11-03T16:29:52.871Z,11.40
2022-11-03T16:31:54.624Z,11.40
2022-11-03T16:33:56.300Z,11.40
2022-11-03T16:35:57.925Z,11.40
2022-11-03T16:37:59.755Z,11.40
2022-11-03T16:40:01.756Z,11.30
2022-11-03T16:42:05.040Z,11.30
2022-11-03T16:44:06.697Z,11.30
2022-11-03T16:46:08.355Z,11.30
2022-11-03T16:48:10.412Z,11.30
2022-11-03T16:50:17.068Z,11.20
2022-11-03T16:52:18.740Z,11.20
2022-11-03T16:54:20.375Z,11.20
2022-11-03T16:56:22.056Z,11.20
2022-11-03T16:58:23.807Z,11.20
2022-11-03T17:00:26.237Z,11.20
2022-11-03T17:02:28.073Z,11.10
2022-11-03T17:04:30.038Z,11.10
2022-11-03T17:06:31.728Z,11.10
2022-11-03T17:10:55.147Z,11.00
2022-11-03T17:12:56.972Z,11.10
2022-11-03T17:14:58.638Z,11.00
2022-11-03T17:17:00.306Z,11.00
2022-11-03T17:19:02.569Z,11.00
2022-11-03T17:21:04.216Z,10.90
2022-11-03T17:23:05.885Z,10.90
2022-11-03T17:25:09.449Z,10.90
2022-11-03T17:27:11.357Z,10.90
2022-11-03T17:29:16.001Z,10.80
2022-11-03T17:31:17.701Z,10.80
2022-11-03T17:33:19.708Z,10.80
2022-11-03T17:35:23.681Z,10.80
2022-11-03T17:37:37.200Z,10.80
2022-11-03T17:39:44.797Z,10.80
2022-11-03T17:41:46.563Z,10.80
2022-11-03T17:43:48.300Z,10.70
2022-11-03T17:45:50.319Z,10.70
2022-11-03T17:47:52.221Z,10.70
2022-11-03T17:49:54.165Z,10.70
2022-11-03T17:51:56.038Z,10.70
2022-11-03T17:53:57.687Z,10.70
2022-11-03T17:58:24.316Z,10.70
2022-11-03T18:00:26.276Z,10.70
2022-11-03T18:02:30.609Z,10.70
2022-11-03T18:04:32.296Z,10.50
2022-11-03T18:06:34.550Z,10.60
2022-11-03T18:08:36.237Z,10.60
2022-11-03T18:10:39.494Z,10.60
2022-11-03T18:13:01.593Z,10.60
2022-11-03T18:15:05.142Z,10.60
2022-11-03T18:17:09.199Z,10.60
2022-11-03T18:19:14.638Z,10.60
2022-11-03T18:21:17.396Z,10.60
2022-11-03T18:23:20.591Z,10.60
2022-11-03T18:25:22.300Z,10.60
2022-11-03T18:27:25.526Z,10.60
2022-11-03T18:29:27.276Z,10.50
2022-11-03T18:31:35.099Z,10.60
2022-11-03T18:33:36.727Z,10.50
2022-11-03T18:35:38.363Z,10.50
2022-11-03T18:37:40.521Z,10.50
2022-11-03T18:39:42.165Z,10.60
2022-11-03T18:41:44.080Z,10.50
2022-11-03T18:43:45.718Z,10.50
2022-11-03T18:45:47.770Z,10.60
2022-11-03T18:47:49.430Z,10.50
2022-11-03T18:49:51.068Z,10.50
2022-11-03T18:52:00.876Z,10.50
2022-11-03T18:54:04.671Z,10.50
2022-11-03T18:56:09.776Z,10.60
2022-11-03T18:58:19.887Z,10.60
2022-11-03T19:00:22.915Z,10.60
2022-11-03T19:02:28.371Z,10.60
2022-11-03T19:04:31.829Z,10.50
2022-11-03T19:06:33.770Z,10.50
2022-11-03T19:08:36.169Z,10.50
2022-11-03T19:10:39.383Z,10.60
2022-11-03T19:12:43.777Z,10.60
2022-11-03T19:14:45.826Z,10.60
2022-11-03T19:17:21.218Z,10.60
2022-11-03T19:19:13.052Z,10.60
2022-11-03T19:21:15.914Z,10.60
2022-11-03T19:23:17.589Z,10.60
2022-11-03T19:25:19.265Z,10.50
2022-11-03T19:27:25.782Z,10.60
2022-11-03T19:29:29.897Z,10.50
2022-11-03T19:31:35.846Z,10.50
2022-11-03T19:33:38.066Z,10.50
2022-11-03T19:35:40.236Z,10.50
2022-11-03T19:37:41.977Z,10.50
2022-11-03T19:39:43.678Z,10.60
2022-11-03T19:42:03.977Z,10.60
2022-11-03T19:44:08.871Z,10.60
2022-11-03T19:46:17.532Z,10.60
2022-11-03T19:48:24.191Z,10.60
2022-11-03T19:50:28.267Z,10.60
2022-11-03T19:52:30.612Z,10.60
2022-11-03T19:54:32.243Z,10.60
2022-11-03T19:56:33.878Z,10.60
2022-11-03T19:58:35.818Z,10.60
2022-11-03T20:00:37.436Z,10.60
2022-11-03T20:02:39.163Z,10.60
2022-11-03T20:04:44.851Z,10.60
2022-11-03T20:06:46.537Z,10.60
2022-11-03T20:08:48.449Z,10.60
2022-11-03T20:10:50.516Z,10.60
2022-11-03T20:12:52.863Z,10.60
2022-11-03T20:14:54.520Z,10.60
2022-11-03T20:16:56.833Z,10.50
2022-11-03T20:18:58.480Z,10.60
2022-11-03T20:21:00.125Z,10.60
2022-11-03T20:23:03.896Z,10.60
2022-11-03T20:25:10.693Z,10.60
2022-11-03T20:27:12.632Z,10.60
2022-11-03T20:29:15.262Z,10.60
2022-11-03T20:31:17.305Z,10.70
2022-11-03T20:33:20.833Z,10.70
2022-11-03T20:35:24.363Z,10.60
2022-11-03T20:37:26.203Z,10.60
2022-11-03T20:39:27.839Z,10.60
2022-11-03T20:41:30.029Z,10.60
2022-11-03T20:43:36.973Z,10.60
2022-11-03T20:45:38.608Z,10.60
2022-11-03T20:47:44.465Z,10.60
2022-11-03T20:49:49.590Z,10.60
2022-11-03T20:51:51.254Z,10.60
2022-11-03T20:53:53.803Z,10.60
2022-11-03T20:55:55.438Z,10.60
2022-11-03T20:57:57.313Z,10.60
2022-11-03T20:59:58.951Z,10.60
2022-11-03T21:02:00.712Z,10.60
2022-11-03T21:04:03.134Z,10.60
2022-11-03T21:06:04.845Z,10.60
2022-11-03T21:08:09.462Z,10.60
2022-11-03T21:10:12.413Z,10.60
2022-11-03T21:12:16.222Z,10.60
2022-11-03T21:14:22.295Z,10.60
2022-11-03T21:16:43.699Z,10.70
2022-11-03T21:19:03.734Z,10.70
2022-11-03T21:21:09.479Z,10.70
2022-11-03T21:23:15.817Z,10.70
2022-11-03T21:25:18.839Z,10.70
2022-11-03T21:27:20.473Z,10.80
2022-11-03T21:29:33.117Z,10.80
2022-11-03T21:31:43.739Z,10.80
2022-11-03T21:33:45.338Z,10.80
2022-11-03T21:35:47.485Z,10.80
2022-11-03T21:37:49.125Z,10.80
2022-11-03T21:39:50.794Z,10.80
2022-11-03T21:42:11.341Z,10.80
2022-11-03T21:44:15.664Z,10.80
2022-11-03T21:46:17.297Z,10.80
2022-11-03T21:48:37.791Z,10.80
2022-11-03T21:50:39.404Z,10.80
2022-11-03T21:52:41.026Z,10.80
2022-11-03T21:54:43.037Z,10.80
2022-11-03T21:56:44.686Z,10.80
2022-11-03T21:58:46.349Z,10.80
2022-11-03T22:00:48.063Z,10.80
2022-11-03T22:02:49.792Z,10.80
2022-11-03T22:04:53.976Z,10.80
2022-11-03T22:06:56.731Z,10.80
2022-11-03T22:08:58.352Z,10.90
2022-11-03T22:11:21.114Z,10.90
2022-11-03T22:13:22.834Z,10.90
2022-11-03T22:15:42.968Z,10.90
2022-11-03T22:17:44.795Z,10.90
2022-11-03T22:20:05.141Z,10.90
2022-11-03T22:22:32.948Z,10.90
2022-11-03T22:24:53.396Z,10.90
2022-11-03T22:26:59.799Z,10.90
2022-11-03T22:29:20.209Z,10.90
2022-11-03T22:31:40.674Z,10.90
2022-11-03T22:34:00.835Z,10.90
2022-11-03T22:36:22.075Z,10.90
2022-11-03T22:38:43.806Z,10.90
2022-11-03T22:41:07.235Z,10.90
2022-11-03T22:43:41.445Z,10.90
2022-11-03T22:45:52.206Z,11.00
2022-11-03T22:47:57.304Z,11.00
2022-11-03T22:49:59.321Z,11.00
2022-11-03T22:52:00.980Z,11.00
2022-11-03T22:54:11.646Z,11.00
2022-11-03T22:56:13.343Z,11.00
2022-11-03T22:58:15.003Z,11.00
2022-11-03T23:00:17.072Z,11.00
2022-11-03T23:02:18.823Z,11.00
2022-11-03T23:04:20.581Z,11.00
2022-11-03T23:06:23.788Z,11.00
2022-11-03T23:08:25.503Z,11.00
2022-11-03T23:10:28.454Z,11.00
2022-11-03T23:12:30.974Z,11.00
2022-11-03T23:14:52.543Z,11.00
2022-11-03T23:16:54.216Z,11.00
2022-11-03T23:19:14.973Z,11.00
2022-11-03T23:21:16.586Z,11.00
2022-11-03T23:23:36.675Z,11.00
2022-11-03T23:25:38.353Z,11.00
2022-11-03T23:27:39.966Z,11.10
2022-11-03T23:29:41.585Z,11.30
2022-11-03T23:31:43.976Z,11.40
2022-11-03T23:33:45.707Z,11.50
2022-11-03T23:35:47.371Z,11.60
2022-11-03T23:37:49.031Z,11.70
2022-11-03T23:39:50.641Z,11.90
2022-11-03T23:41:52.333Z,12.00
2022-11-03T23:43:54.377Z,12.10
2022-11-03T23:46:14.604Z,12.10
2022-11-03T23:48:34.655Z,12.20
2022-11-03T23:50:38.189Z,12.30
2022-11-03T23:52:39.835Z,12.30
2022-11-03T23:54:41.836Z,12.30
2022-11-03T23:57:03.593Z,12.30
2022-11-03T23:59:05.770Z,12.40
